Time;durP1;ratioP1;P1;durP2;ratioP2;P2;SDS_P1;SDS_P2;PMS_P1;PMS_P2;Temp;Humidity;BMP_temperature;BMP_pressure;BME280_temperature;BME280_humidity;BME280_pressure;Samples;Min_cycle;Max_cycle;Signal;HPM_P1;HPM_P2
2023/07/29 00:01:07;;;;;;;2.55;1.17;;;;;;;;;;5050458;28;20033;-82
2023/07/29 00:03:33;;;;;;;6.32;1.40;;;;;;;;;;5045491;28;20053;-81
2023/07/29 00:06:02;;;;;;;3.67;1.38;;;;;;;;;;5046416;28;20087;-80
2023/07/29 00:08:28;;;;;;;1.65;1.13;;;;;;;;;;5049206;28;20037;-78
2023/07/29 00:10:54;;;;;;;2.65;1.40;;;;;;;;;;5050917;28;20033;-79
2023/07/29 00:13:20;;;;;;;1.88;1.15;;;;;;;;;;5050838;28;20068;-83
2023/07/29 00:15:48;;;;;;;3.00;0.75;;;;;;;;;;5049758;28;20091;-78
2023/07/29 00:18:16;;;;;;;3.22;1.00;;;;;;;;;;5051090;28;20029;-82
2023/07/29 00:20:45;;;;;;;4.05;1.30;;;;;;;;;;5049412;28;20512;-81
2023/07/29 00:23:11;;;;;;;2.05;1.38;;;;;;;;;;5067064;28;20040;-83
2023/07/29 00:25:37;;;;;;;3.22;1.25;;;;;;;;;;5066623;28;20364;-79
2023/07/29 00:28:03;;;;;;;1.08;0.88;;;;;;;;;;5050179;28;20029;-83
2023/07/29 00:30:29;;;;;;;4.47;1.42;;;;;;;;;;5050246;28;20025;-80
2023/07/29 00:32:55;;;;;;;5.05;1.63;;;;;;;;;;5050010;28;20032;-80
2023/07/29 00:35:21;;;;;;;4.20;1.30;;;;;;;;;;5051475;28;20760;-82
2023/07/29 00:37:49;;;;;;;2.80;1.42;;;;;;;;;;5050549;28;20024;-81
2023/07/29 00:40:17;;;;;;;1.27;0.95;;;;;;;;;;5050602;28;20033;-83
2023/07/29 00:42:43;;;;;;;4.45;1.20;;;;;;;;;;5049359;28;20056;-80
2023/07/29 00:45:10;;;;;;;1.83;1.52;;;;;;;;;;5049344;28;20029;-83
2023/07/29 00:47:38;;;;;;;1.95;1.33;;;;;;;;;;5045034;28;20111;-83
2023/07/29 00:50:07;;;;;;;4.28;1.20;;;;;;;;;;5066459;28;20032;-82
2023/07/29 00:52:35;;;;;;;1.17;1.08;;;;;;;;;;5051791;28;20028;-83
2023/07/29 00:55:01;;;;;;;2.15;1.10;;;;;;;;;;5065239;28;20086;-81
2023/07/29 00:57:28;;;;;;;2.13;1.15;;;;;;;;;;5045277;28;20027;-83
2023/07/29 00:59:54;;;;;;;5.38;1.45;;;;;;;;;;5050935;28;20045;-83
2023/07/29 01:02:21;;;;;;;2.17;1.20;;;;;;;;;;5066430;28;20120;-83
2023/07/29 01:04:51;;;;;;;1.70;1.00;;;;;;;;;;5049571;28;20043;-80
2023/07/29 01:07:17;;;;;;;3.38;1.27;;;;;;;;;;5049303;28;20037;-80
2023/07/29 01:09:46;;;;;;;4.05;1.33;;;;;;;;;;5050194;28;20033;-82
2023/07/29 01:12:20;;;;;;;2.38;1.10;;;;;;;;;;5050334;28;20409;-80
2023/07/29 01:14:46;;;;;;;3.50;1.20;;;;;;;;;;5049888;28;20028;-82
2023/07/29 01:17:19;;;;;;;1.30;1.10;;;;;;;;;;5043745;28;20087;-78
2023/07/29 01:20:00;;;;;;;2.33;0.90;;;;;;;;;;5048763;28;20056;-80
2023/07/29 01:22:26;;;;;;;2.65;1.30;;;;;;;;;;5065406;28;20041;-82
2023/07/29 01:24:52;;;;;;;3.03;1.20;;;;;;;;;;5048965;28;20036;-78
2023/07/29 01:27:18;;;;;;;2.92;1.63;;;;;;;;;;5050244;28;20040;-81
2023/07/29 01:29:45;;;;;;;1.60;1.10;;;;;;;;;;5044014;28;20084;-82
2023/07/29 01:32:17;;;;;;;2.97;1.02;;;;;;;;;;5051324;28;20060;-83
2023/07/29 01:34:49;;;;;;;3.00;1.25;;;;;;;;;;5051662;28;20112;-83
2023/07/29 01:37:18;;;;;;;3.40;1.75;;;;;;;;;;5044299;28;20025;-80
2023/07/29 01:39:47;;;;;;;1.50;1.15;;;;;;;;;;5048361;28;20040;-82
2023/07/29 01:42:13;;;;;;;2.42;1.02;;;;;;;;;;5050268;28;20032;-77
2023/07/29 01:44:39;;;;;;;3.67;1.38;;;;;;;;;;5050172;28;20932;-79
2023/07/29 01:47:05;;;;;;;2.28;1.50;;;;;;;;;;5050827;28;20475;-83
2023/07/29 01:49:31;;;;;;;2.65;1.30;;;;;;;;;;5052577;28;20028;-79
2023/07/29 01:52:00;;;;;;;2.33;0.90;;;;;;;;;;5048762;28;20037;-82
2023/07/29 01:54:26;;;;;;;3.83;1.10;;;;;;;;;;5043452;28;20597;-80
2023/07/29 01:56:52;;;;;;;3.17;1.65;;;;;;;;;;5048986;28;20037;-81
2023/07/29 01:59:18;;;;;;;18.38;2.63;;;;;;;;;;5048087;28;20033;-82
2023/07/29 02:01:46;;;;;;;6.88;2.90;;;;;;;;;;5048528;28;20081;-78
2023/07/29 02:04:12;;;;;;;13.70;3.03;;;;;;;;;;5065307;28;20119;-83
2023/07/29 02:06:38;;;;;;;4.85;3.42;;;;;;;;;;5048405;28;20039;-80
2023/07/29 02:09:04;;;;;;;4.95;3.60;;;;;;;;;;5049035;28;21654;-83
2023/07/29 02:11:30;;;;;;;5.85;3.60;;;;;;;;;;5043870;28;20484;-84
2023/07/29 02:13:58;;;;;;;5.05;3.63;;;;;;;;;;5048527;28;20036;-79
2023/07/29 02:16:25;;;;;;;6.80;3.97;;;;;;;;;;5048732;28;20041;-78
2023/07/29 02:18:51;;;;;;;7.18;4.15;;;;;;;;;;5049304;28;20032;-80
2023/07/29 02:21:17;;;;;;;6.20;4.13;;;;;;;;;;5049448;28;20134;-83
2023/07/29 02:23:43;;;;;;;8.95;4.88;;;;;;;;;;5043542;28;20040;-83
2023/07/29 02:26:09;;;;;;;4.10;3.60;;;;;;;;;;5051937;28;20032;-80
2023/07/29 02:28:35;;;;;;;5.82;3.83;;;;;;;;;;5047289;28;20926;-82
2023/07/29 02:31:10;;;;;;;7.45;4.18;;;;;;;;;;5048656;28;20032;-83
2023/07/29 02:33:36;;;;;;;6.18;4.65;;;;;;;;;;5042469;28;20570;-79
2023/07/29 02:36:05;;;;;;;7.55;4.55;;;;;;;;;;5050308;28;20159;-82
2023/07/29 02:38:31;;;;;;;6.00;4.28;;;;;;;;;;5048123;28;20036;-80
2023/07/29 02:41:01;;;;;;;7.00;3.92;;;;;;;;;;5042745;28;20037;-81
2023/07/29 02:43:30;;;;;;;4.85;3.30;;;;;;;;;;5042588;28;20064;-81
2023/07/29 02:45:58;;;;;;;5.78;3.67;;;;;;;;;;5060246;28;20036;-78
2023/07/29 02:48:25;;;;;;;4.90;3.65;;;;;;;;;;5047561;28;20052;-84
2023/07/29 02:50:51;;;;;;;5.85;4.45;;;;;;;;;;5049534;28;20033;-83
2023/07/29 02:53:17;;;;;;;7.25;4.50;;;;;;;;;;5048803;28;20056;-79
2023/07/29 02:55:43;;;;;;;5.40;3.75;;;;;;;;;;5043715;28;20047;-79
2023/07/29 02:58:09;;;;;;;7.28;4.28;;;;;;;;;;5050995;28;20063;-83
2023/07/29 03:00:35;;;;;;;5.78;4.13;;;;;;;;;;5067756;28;20036;-82
2023/07/29 03:03:01;;;;;;;4.10;3.10;;;;;;;;;;5053041;28;20048;-82
2023/07/29 03:05:30;;;;;;;4.45;3.45;;;;;;;;;;5052690;28;20029;-83
2023/07/29 03:07:56;;;;;;;5.35;3.00;;;;;;;;;;5052185;28;20033;-81
2023/07/29 03:10:22;;;;;;;6.30;3.03;;;;;;;;;;5047439;28;20040;-83
2023/07/29 03:12:48;;;;;;;4.88;2.83;;;;;;;;;;5052026;28;20021;-81
2023/07/29 03:15:16;;;;;;;4.30;2.75;;;;;;;;;;5052066;28;20384;-82
2023/07/29 03:17:42;;;;;;;6.00;2.75;;;;;;;;;;5052832;28;20036;-78
2023/07/29 03:20:08;;;;;;;3.50;2.47;;;;;;;;;;5053019;28;20035;-81
2023/07/29 03:22:34;;;;;;;3.58;2.38;;;;;;;;;;5050622;28;20037;-80
2023/07/29 03:25:00;;;;;;;4.47;2.22;;;;;;;;;;5050777;28;20025;-79
2023/07/29 03:27:26;;;;;;;6.75;2.80;;;;;;;;;;5046224;28;20060;-80
2023/07/29 03:29:55;;;;;;;5.13;2.53;;;;;;;;;;5051057;28;20029;-82
2023/07/29 03:32:20;;;;;;;6.57;2.95;;;;;;;;;;5050856;28;20078;-81
2023/07/29 03:34:49;;;;;;;5.47;3.35;;;;;;;;;;5051488;28;20083;-83
2023/07/29 03:37:15;;;;;;;6.53;3.05;;;;;;;;;;5066935;28;20036;-80
2023/07/29 03:39:43;;;;;;;5.65;3.90;;;;;;;;;;5052599;28;20029;-84
2023/07/29 03:42:09;;;;;;;7.03;3.10;;;;;;;;;;5051263;28;20033;-78
2023/07/29 03:44:35;;;;;;;6.35;4.03;;;;;;;;;;5053884;28;20033;-83
2023/07/29 03:47:01;;;;;;;7.32;3.97;;;;;;;;;;5052399;28;20029;-78
2023/07/29 03:49:27;;;;;;;8.45;4.18;;;;;;;;;;5050966;28;20590;-81
2023/07/29 03:51:53;;;;;;;8.93;3.33;;;;;;;;;;5045586;28;20033;-83
2023/07/29 03:54:19;;;;;;;5.22;3.10;;;;;;;;;;5054251;28;20044;-80
2023/07/29 03:56:45;;;;;;;9.30;4.30;;;;;;;;;;5052129;28;21618;-82
2023/07/29 03:59:14;;;;;;;4.55;3.40;;;;;;;;;;5053297;28;20033;-80
2023/07/29 04:01:40;;;;;;;9.07;3.30;;;;;;;;;;5047463;28;20043;-81
2023/07/29 04:04:08;;;;;;;6.07;3.00;;;;;;;;;;5049734;28;20037;-83
2023/07/29 04:06:34;;;;;;;8.25;3.70;;;;;;;;;;5051469;28;20151;-81
2023/07/29 04:09:00;;;;;;;7.20;3.17;;;;;;;;;;5051036;28;20139;-83
2023/07/29 04:11:26;;;;;;;5.03;3.63;;;;;;;;;;5050556;28;20441;-78
2023/07/29 04:13:52;;;;;;;6.57;3.78;;;;;;;;;;5051148;28;20040;-81
2023/07/29 04:16:18;;;;;;;6.65;3.40;;;;;;;;;;5050544;28;20032;-82
2023/07/29 04:18:44;;;;;;;16.92;4.22;;;;;;;;;;5050092;28;20075;-78
2023/07/29 04:21:10;;;;;;;7.10;3.38;;;;;;;;;;5052097;28;20164;-79
2023/07/29 04:23:37;;;;;;;8.20;3.25;;;;;;;;;;5045647;28;20037;-84
2023/07/29 04:26:05;;;;;;;5.43;3.28;;;;;;;;;;5061936;28;20032;-78
2023/07/29 04:28:31;;;;;;;7.03;4.40;;;;;;;;;;5049936;28;20033;-81
2023/07/29 04:30:57;;;;;;;8.48;4.22;;;;;;;;;;5045474;28;20039;-78
2023/07/29 04:33:23;;;;;;;7.35;4.03;;;;;;;;;;5050717;28;20852;-82
2023/07/29 04:35:49;;;;;;;4.35;3.70;;;;;;;;;;5050865;28;20094;-83
2023/07/29 04:38:15;;;;;;;5.97;4.03;;;;;;;;;;5067159;28;20041;-79
2023/07/29 04:40:41;;;;;;;8.35;4.35;;;;;;;;;;5045411;28;20029;-82
2023/07/29 04:43:11;;;;;;;7.40;4.18;;;;;;;;;;5049679;28;20516;-80
2023/07/29 04:45:43;;;;;;;8.90;4.43;;;;;;;;;;5050192;28;20129;-83
2023/07/29 04:48:09;;;;;;;6.55;4.35;;;;;;;;;;5047997;28;20106;-81
2023/07/29 04:50:35;;;;;;;6.03;4.50;;;;;;;;;;5051915;28;20032;-82
2023/07/29 04:53:01;;;;;;;7.68;5.22;;;;;;;;;;5045376;28;20051;-78
2023/07/29 04:55:27;;;;;;;6.38;5.00;;;;;;;;;;5048995;28;20033;-83
2023/07/29 04:57:53;;;;;;;10.63;4.90;;;;;;;;;;5045400;28;20035;-81
2023/07/29 05:00:21;;;;;;;8.80;5.25;;;;;;;;;;5049534;28;20029;-79
2023/07/29 05:02:47;;;;;;;8.48;5.25;;;;;;;;;;5050215;28;20029;-82
2023/07/29 05:05:13;;;;;;;12.35;4.68;;;;;;;;;;5050539;28;20330;-81
2023/07/29 05:07:41;;;;;;;9.30;5.38;;;;;;;;;;5066255;28;20045;-83
2023/07/29 05:10:09;;;;;;;8.18;5.30;;;;;;;;;;5049958;28;20115;-80
2023/07/29 05:12:36;;;;;;;8.77;5.40;;;;;;;;;;5051060;28;20766;-83
2023/07/29 05:15:02;;;;;;;8.95;5.85;;;;;;;;;;5064977;28;20800;-78
2023/07/29 05:17:28;;;;;;;6.03;5.15;;;;;;;;;;5048637;28;20040;-81
2023/07/29 05:19:54;;;;;;;8.23;4.82;;;;;;;;;;5049047;28;20101;-82
2023/07/29 05:22:20;;;;;;;6.82;4.60;;;;;;;;;;5044110;28;20036;-79
2023/07/29 05:24:46;;;;;;;6.35;5.03;;;;;;;;;;5048461;28;20036;-78
2023/07/29 05:27:12;;;;;;;5.43;4.25;;;;;;;;;;5044666;28;20056;-82
2023/07/29 05:29:38;;;;;;;7.18;4.55;;;;;;;;;;5044144;28;20193;-78
2023/07/29 05:32:06;;;;;;;4.53;4.13;;;;;;;;;;5044436;28;20033;-81
2023/07/29 05:34:32;;;;;;;6.97;4.55;;;;;;;;;;5049090;28;20052;-81
2023/07/29 05:36:58;;;;;;;7.75;4.40;;;;;;;;;;5049348;28;20706;-83
2023/07/29 05:39:24;;;;;;;7.40;4.45;;;;;;;;;;5050248;28;20097;-80
2023/07/29 05:41:53;;;;;;;6.50;4.65;;;;;;;;;;5049673;28;20120;-83
2023/07/29 05:44:18;;;;;;;6.53;4.05;;;;;;;;;;5048143;28;20085;-83
2023/07/29 05:46:44;;;;;;;6.10;3.97;;;;;;;;;;5048431;28;20049;-77
2023/07/29 05:49:10;;;;;;;10.15;3.53;;;;;;;;;;5049816;28;20048;-83
2023/07/29 05:51:36;;;;;;;9.63;3.97;;;;;;;;;;5048695;28;20033;-80
2023/07/29 05:54:02;;;;;;;4.43;3.65;;;;;;;;;;5049264;28;20060;-78
2023/07/29 05:56:29;;;;;;;6.22;3.10;;;;;;;;;;5049015;28;20024;-84
2023/07/29 05:58:55;;;;;;;6.45;3.47;;;;;;;;;;5050037;28;20902;-83
2023/07/29 06:01:21;;;;;;;4.72;3.15;;;;;;;;;;5050013;28;20025;-80
2023/07/29 06:03:50;;;;;;;5.05;3.33;;;;;;;;;;5044145;28;20037;-82
2023/07/29 06:06:16;;;;;;;4.80;2.80;;;;;;;;;;5046693;28;20029;-80
2023/07/29 06:08:44;;;;;;;5.45;2.75;;;;;;;;;;5063199;28;20094;-80
2023/07/29 06:11:10;;;;;;;6.10;3.08;;;;;;;;;;5051112;28;20024;-78
2023/07/29 06:13:36;;;;;;;4.43;3.10;;;;;;;;;;5048445;28;20037;-81
2023/07/29 06:16:02;;;;;;;4.05;3.00;;;;;;;;;;5045961;28;20433;-81
2023/07/29 06:18:30;;;;;;;4.47;3.13;;;;;;;;;;5043868;28;20028;-82
2023/07/29 06:20:56;;;;;;;4.18;2.30;;;;;;;;;;5048125;28;20021;-83
2023/07/29 06:23:22;;;;;;;4.32;2.72;;;;;;;;;;5049328;28;20099;-80
2023/07/29 06:25:48;;;;;;;7.18;2.40;;;;;;;;;;5050836;28;20033;-81
2023/07/29 06:28:14;;;;;;;2.92;2.10;;;;;;;;;;5044621;28;20471;-79
2023/07/29 06:30:40;;;;;;;6.25;4.28;;;;;;;;;;5049887;28;20032;-80
2023/07/29 06:33:06;;;;;;;3.75;1.80;;;;;;;;;;5052902;28;20029;-81
2023/07/29 06:35:32;;;;;;;2.33;1.60;;;;;;;;;;5048639;28;20024;-79
2023/07/29 06:38:01;;;;;;;3.13;1.77;;;;;;;;;;5050182;28;20043;-82
2023/07/29 06:40:27;;;;;;;4.03;2.08;;;;;;;;;;5049921;28;20036;-81
2023/07/29 06:42:52;;;;;;;3.90;1.67;;;;;;;;;;5050157;28;20357;-80
2023/07/29 06:45:18;;;;;;;3.70;1.45;;;;;;;;;;5055093;28;20036;-82
2023/07/29 06:47:45;;;;;;;4.35;1.70;;;;;;;;;;5055361;28;20033;-78
2023/07/29 06:50:13;;;;;;;2.90;0.90;;;;;;;;;;5054226;28;20044;-80
2023/07/29 06:52:40;;;;;;;4.25;1.45;;;;;;;;;;5054694;28;20053;-82
2023/07/29 06:55:06;;;;;;;5.80;1.40;;;;;;;;;;5056316;28;20028;-78
2023/07/29 06:57:35;;;;;;;4.22;1.58;;;;;;;;;;5050816;28;20057;-83
2023/07/29 07:00:03;;;;;;;3.88;1.27;;;;;;;;;;5070401;28;20036;-83
2023/07/29 07:02:32;;;;;;;3.45;1.17;;;;;;;;;;5055415;28;20088;-80
2023/07/29 07:04:58;;;;;;;3.25;1.65;;;;;;;;;;5055579;28;20037;-84
2023/07/29 07:07:24;;;;;;;4.10;1.60;;;;;;;;;;5054289;28;20044;-81
2023/07/29 07:09:52;;;;;;;6.15;1.40;;;;;;;;;;5051006;28;20048;-84
2023/07/29 07:12:21;;;;;;;6.40;1.50;;;;;;;;;;5054171;28;20057;-84
2023/07/29 07:14:49;;;;;;;3.05;1.30;;;;;;;;;;5055993;28;20033;-85
2023/07/29 07:17:15;;;;;;;3.55;1.30;;;;;;;;;;5053576;28;20044;-83
2023/07/29 07:19:41;;;;;;;2.78;1.10;;;;;;;;;;5066515;28;20028;-85
2023/07/29 07:22:07;;;;;;;6.80;1.70;;;;;;;;;;5057312;28;20039;-82
2023/07/29 07:24:33;;;;;;;3.72;1.70;;;;;;;;;;5054825;28;20060;-82
2023/07/29 07:26:59;;;;;;;5.05;1.40;;;;;;;;;;5050398;28;20024;-82
2023/07/29 07:29:27;;;;;;;2.97;1.17;;;;;;;;;;5055838;28;20082;-82
2023/07/29 07:31:54;;;;;;;4.60;1.20;;;;;;;;;;5050001;28;20789;-83
2023/07/29 07:34:23;;;;;;;8.85;1.17;;;;;;;;;;5054964;28;20058;-81
2023/07/29 07:36:49;;;;;;;1.75;1.23;;;;;;;;;;5070898;28;20028;-83
2023/07/29 07:39:17;;;;;;;7.15;1.60;;;;;;;;;;5071075;28;20047;-86
2023/07/29 07:41:44;;;;;;;4.00;1.38;;;;;;;;;;5072494;28;20040;-85
2023/07/29 07:44:15;;;;;;;2.85;1.10;;;;;;;;;;5054458;28;20043;-85
2023/07/29 07:46:41;;;;;;;3.23;0.93;;;;;;;;;;5048426;28;20046;-85
2023/07/29 07:49:10;;;;;;;5.47;1.13;;;;;;;;;;5048677;28;20400;-83
2023/07/29 07:51:36;;;;;;;2.78;1.25;;;;;;;;;;5052823;28;20032;-83
2023/07/29 07:54:01;;;;;;;1.88;1.27;;;;;;;;;;5052037;28;20088;-81
2023/07/29 07:56:27;;;;;;;2.67;1.23;;;;;;;;;;5052763;28;20025;-84
2023/07/29 07:58:53;;;;;;;3.75;1.23;;;;;;;;;;5052322;28;20548;-83
2023/07/29 08:01:19;;;;;;;2.45;1.10;;;;;;;;;;5048256;28;20029;-82
2023/07/29 08:03:45;;;;;;;3.53;1.20;;;;;;;;;;5050962;28;20043;-87
2023/07/29 08:06:11;;;;;;;3.15;1.10;;;;;;;;;;5051260;28;20039;-82
2023/07/29 08:08:40;;;;;;;3.60;1.15;;;;;;;;;;5052992;28;20469;-80
2023/07/29 08:11:06;;;;;;;1.95;1.15;;;;;;;;;;5049961;28;20436;-81
2023/07/29 08:13:32;;;;;;;1.90;1.20;;;;;;;;;;5052288;28;20039;-84
2023/07/29 08:15:58;;;;;;;2.30;1.23;;;;;;;;;;5051533;28;20032;-83
2023/07/29 08:18:24;;;;;;;4.05;1.30;;;;;;;;;;5049813;28;20122;-79
2023/07/29 08:20:54;;;;;;;3.03;1.40;;;;;;;;;;5051536;28;20748;-84
2023/07/29 08:23:20;;;;;;;3.95;0.77;;;;;;;;;;5051179;28;20033;-84
2023/07/29 08:25:51;;;;;;;1.95;1.23;;;;;;;;;;5051635;28;20024;-85
2023/07/29 08:28:17;;;;;;;2.55;1.20;;;;;;;;;;5050596;28;20021;-84
2023/07/29 08:30:43;;;;;;;4.32;0.90;;;;;;;;;;5050953;28;20209;-82
2023/07/29 08:33:09;;;;;;;1.95;0.77;;;;;;;;;;5067204;28;20033;-82
2023/07/29 08:35:35;;;;;;;4.05;0.85;;;;;;;;;;5050033;28;20042;-82
2023/07/29 08:38:04;;;;;;;1.70;0.82;;;;;;;;;;5053381;28;20048;-80
2023/07/29 08:40:30;;;;;;;2.33;1.25;;;;;;;;;;5051113;28;20033;-83
2023/07/29 08:42:58;;;;;;;2.88;0.63;;;;;;;;;;5054909;28;20040;-84
2023/07/29 08:45:25;;;;;;;1.92;0.75;;;;;;;;;;5046232;28;20128;-85
2023/07/29 08:47:55;;;;;;;2.15;0.80;;;;;;;;;;5045565;28;20520;-84
2023/07/29 08:50:21;;;;;;;2.10;0.77;;;;;;;;;;5045713;28;20029;-82
2023/07/29 08:52:48;;;;;;;3.47;0.50;;;;;;;;;;5045944;28;20054;-82
2023/07/29 08:55:16;;;;;;;1.75;0.65;;;;;;;;;;5051159;28;20037;-83
2023/07/29 08:57:42;;;;;;;2.85;0.80;;;;;;;;;;5050781;28;20024;-81
2023/07/29 09:00:09;;;;;;;2.03;0.70;;;;;;;;;;5050059;28;20817;-83
2023/07/29 09:02:35;;;;;;;6.10;1.25;;;;;;;;;;5049164;28;20041;-83
2023/07/29 09:05:02;;;;;;;1.65;0.75;;;;;;;;;;5049458;28;20046;-82
2023/07/29 09:07:29;;;;;;;2.13;0.93;;;;;;;;;;5049683;28;20044;-79
2023/07/29 09:09:55;;;;;;;1.17;0.50;;;;;;;;;;5065518;28;20024;-80
2023/07/29 09:12:21;;;;;;;1.70;0.82;;;;;;;;;;5066286;28;20047;-84
2023/07/29 09:14:47;;;;;;;0.90;0.50;;;;;;;;;;5050576;28;20029;-84
2023/07/29 09:17:13;;;;;;;2.05;0.95;;;;;;;;;;5048867;28;20037;-81
2023/07/29 09:19:39;;;;;;;2.33;1.00;;;;;;;;;;5048364;28;21695;-85
2023/07/29 09:22:07;;;;;;;2.38;1.00;;;;;;;;;;5049711;28;20036;-85
2023/07/29 09:24:34;;;;;;;1.02;0.68;;;;;;;;;;5050974;28;21133;-80
2023/07/29 09:27:02;;;;;;;1.45;0.52;;;;;;;;;;5049970;28;20064;-84
2023/07/29 09:29:29;;;;;;;2.30;0.98;;;;;;;;;;5049764;28;20445;-83
2023/07/29 09:31:56;;;;;;;0.82;0.70;;;;;;;;;;5050742;28;20037;-82
2023/07/29 09:34:22;;;;;;;2.15;0.88;;;;;;;;;;5065932;28;20029;-81
2023/07/29 09:36:51;;;;;;;1.33;0.50;;;;;;;;;;5049127;28;20081;-84
2023/07/29 09:39:26;;;;;;;3.95;0.57;;;;;;;;;;5049084;28;20032;-83
2023/07/29 09:41:52;;;;;;;0.80;0.60;;;;;;;;;;5049704;28;20032;-83
2023/07/29 09:44:21;;;;;;;4.15;1.20;;;;;;;;;;5048849;28;20039;-84
2023/07/29 09:46:47;;;;;;;2.22;0.90;;;;;;;;;;5065116;28;20028;-81
2023/07/29 09:49:13;;;;;;;2.08;0.90;;;;;;;;;;5044465;28;20075;-83
2023/07/29 09:51:39;;;;;;;4.60;1.10;;;;;;;;;;5064254;28;20020;-80
2023/07/29 09:54:05;;;;;;;2.03;0.90;;;;;;;;;;5044495;28;20017;-81
2023/07/29 09:56:31;;;;;;;2.28;0.80;;;;;;;;;;5049745;28;21696;-84
2023/07/29 09:58:58;;;;;;;2.33;0.88;;;;;;;;;;5048131;28;20035;-82
2023/07/29 10:01:24;;;;;;;1.77;1.10;;;;;;;;;;5049112;28;20089;-80
2023/07/29 10:03:50;;;;;;;2.20;1.13;;;;;;;;;;5048828;28;20083;-81
2023/07/29 10:06:21;;;;;;;1.40;0.80;;;;;;;;;;5043607;28;20131;-83
2023/07/29 10:08:49;;;;;;;3.03;1.02;;;;;;;;;;5048938;28;20032;-82
2023/07/29 10:11:16;;;;;;;2.45;1.00;;;;;;;;;;5049192;28;20036;-81
2023/07/29 10:13:42;;;;;;;2.15;0.77;;;;;;;;;;5048186;28;20040;-83
2023/07/29 10:16:08;;;;;;;2.42;1.35;;;;;;;;;;5047910;28;20029;-82
2023/07/29 10:18:37;;;;;;;1.23;0.80;;;;;;;;;;5043444;28;20032;-82
2023/07/29 10:21:03;;;;;;;2.55;0.90;;;;;;;;;;5047586;28;20111;-82
2023/07/29 10:23:35;;;;;;;3.40;0.95;;;;;;;;;;5049120;28;20043;-82
2023/07/29 10:26:06;;;;;;;0.85;0.57;;;;;;;;;;5044125;28;20054;-82
2023/07/29 10:28:32;;;;;;;2.42;1.27;;;;;;;;;;5047580;28;20664;-84
2023/07/29 10:30:58;;;;;;;4.13;1.00;;;;;;;;;;5047273;28;20099;-79
2023/07/29 10:33:24;;;;;;;2.20;1.30;;;;;;;;;;5047116;28;20053;-79
2023/07/29 10:35:51;;;;;;;4.10;1.27;;;;;;;;;;5049754;28;20181;-79
2023/07/29 10:38:17;;;;;;;1.83;0.90;;;;;;;;;;5049266;28;20044;-82
2023/07/29 10:40:57;;;;;;;2.65;1.00;;;;;;;;;;5049201;28;20032;-77
2023/07/29 10:43:27;;;;;;;1.00;0.80;;;;;;;;;;5049300;28;20092;-83
2023/07/29 10:45:54;;;;;;;1.25;1.00;;;;;;;;;;5048328;28;20044;-81
2023/07/29 10:48:39;;;;;;;2.95;1.13;;;;;;;;;;5049159;28;20480;-79
2023/07/29 10:51:29;;;;;;;4.30;1.20;;;;;;;;;;5047993;28;20464;-79
2023/07/29 10:54:09;;;;;;;1.13;0.95;;;;;;;;;;5051531;28;20039;-83
2023/07/29 10:56:36;;;;;;;2.47;1.17;;;;;;;;;;5048460;28;20033;-79
2023/07/29 10:59:22;;;;;;;1.83;0.88;;;;;;;;;;5050517;28;20046;-79
2023/07/29 11:01:54;;;;;;;2.03;1.02;;;;;;;;;;5050888;28;20067;-81
2023/07/29 11:04:20;;;;;;;2.80;1.17;;;;;;;;;;5049418;28;20043;-80
2023/07/29 11:07:04;;;;;;;2.47;1.08;;;;;;;;;;5047708;28;20113;-82
2023/07/29 11:09:41;;;;;;;2.50;1.02;;;;;;;;;;5047377;28;20021;-82
2023/07/29 11:12:29;;;;;;;2.33;0.95;;;;;;;;;;5064571;28;20032;-83
2023/07/29 11:14:55;;;;;;;1.02;0.75;;;;;;;;;;5047923;28;20064;-81
2023/07/29 11:17:21;;;;;;;1.58;1.02;;;;;;;;;;5042285;28;20037;-78
2023/07/29 11:19:50;;;;;;;2.08;0.88;;;;;;;;;;5050442;28;20041;-80
2023/07/29 11:22:19;;;;;;;2.60;1.40;;;;;;;;;;5052176;28;20032;-79
2023/07/29 11:24:45;;;;;;;1.75;1.23;;;;;;;;;;5045704;28;20032;-80
2023/07/29 11:27:14;;;;;;;1.58;0.95;;;;;;;;;;5068387;28;20048;-83
2023/07/29 11:29:40;;;;;;;3.38;0.93;;;;;;;;;;5050126;28;20036;-79
2023/07/29 11:32:06;;;;;;;1.95;1.15;;;;;;;;;;5051410;28;20028;-80
2023/07/29 11:34:32;;;;;;;1.45;0.90;;;;;;;;;;5051402;28;21717;-82
2023/07/29 11:36:58;;;;;;;1.08;0.63;;;;;;;;;;5052701;28;20020;-82
2023/07/29 11:39:24;;;;;;;1.50;0.95;;;;;;;;;;5051618;28;20036;-79
2023/07/29 11:41:50;;;;;;;2.88;0.80;;;;;;;;;;5051851;28;20029;-80
2023/07/29 11:44:19;;;;;;;1.38;0.90;;;;;;;;;;5052240;28;20567;-79
2023/07/29 11:46:45;;;;;;;1.02;0.77;;;;;;;;;;5067211;28;20660;-81
2023/07/29 11:49:11;;;;;;;4.43;0.80;;;;;;;;;;5062529;28;20028;-80
2023/07/29 11:51:37;;;;;;;1.25;0.90;;;;;;;;;;5051167;28;20029;-79
2023/07/29 11:54:03;;;;;;;1.50;0.88;;;;;;;;;;5051203;28;21721;-82
2023/07/29 11:56:32;;;;;;;2.85;0.85;;;;;;;;;;5050357;28;20051;-82
2023/07/29 11:58:58;;;;;;;2.95;1.10;;;;;;;;;;5050478;28;20028;-78
2023/07/29 12:01:24;;;;;;;1.35;0.75;;;;;;;;;;5050894;28;20036;-82
2023/07/29 12:03:53;;;;;;;3.25;1.10;;;;;;;;;;5061906;28;20094;-79
2023/07/29 12:06:19;;;;;;;2.47;0.65;;;;;;;;;;5050360;28;20072;-80
2023/07/29 12:08:48;;;;;;;0.95;0.75;;;;;;;;;;5050547;28;20071;-82
2023/07/29 12:11:14;;;;;;;1.27;0.88;;;;;;;;;;5043942;28;20029;-79
2023/07/29 12:13:42;;;;;;;1.42;0.93;;;;;;;;;;5050846;28;20154;-80
2023/07/29 12:16:08;;;;;;;1.35;0.88;;;;;;;;;;5050439;28;20098;-79
2023/07/29 12:18:34;;;;;;;1.25;0.85;;;;;;;;;;5051798;28;20150;-80
2023/07/29 12:21:00;;;;;;;1.13;0.70;;;;;;;;;;5049417;28;20380;-79
2023/07/29 12:23:26;;;;;;;1.02;0.88;;;;;;;;;;5050489;28;20119;-78
2023/07/29 12:25:58;;;;;;;2.13;1.00;;;;;;;;;;5062006;28;20154;-80
2023/07/29 12:28:24;;;;;;;3.42;1.33;;;;;;;;;;5050669;28;20112;-77
2023/07/29 12:30:56;;;;;;;3.33;1.27;;;;;;;;;;5065779;28;20089;-81
2023/07/29 12:33:32;;;;;;;2.25;1.85;;;;;;;;;;5044544;28;20060;-81
2023/07/29 12:35:58;;;;;;;2.00;1.25;;;;;;;;;;5051683;28;20025;-81
2023/07/29 12:38:26;;;;;;;5.20;2.97;;;;;;;;;;5048983;28;20125;-80
2023/07/29 12:40:52;;;;;;;1.40;1.05;;;;;;;;;;5049209;28;20048;-81
2023/07/29 12:43:20;;;;;;;1.70;1.20;;;;;;;;;;5048737;28;20457;-79
2023/07/29 12:45:46;;;;;;;2.00;1.13;;;;;;;;;;5049982;28;20036;-81
2023/07/29 12:48:12;;;;;;;2.00;1.45;;;;;;;;;;5044742;28;20035;-81
2023/07/29 12:50:39;;;;;;;2.55;0.82;;;;;;;;;;5044459;28;20632;-81
2023/07/29 12:53:08;;;;;;;1.00;0.80;;;;;;;;;;5050078;28;20078;-82
2023/07/29 12:55:34;;;;;;;1.13;0.80;;;;;;;;;;5065823;28;20296;-81
2023/07/29 12:58:00;;;;;;;1.23;1.00;;;;;;;;;;5049174;28;20645;-81
2023/07/29 13:00:26;;;;;;;1.10;0.80;;;;;;;;;;5050069;28;20048;-82
2023/07/29 13:02:52;;;;;;;1.10;0.80;;;;;;;;;;5050088;28;20024;-78
2023/07/29 13:05:18;;;;;;;2.75;0.80;;;;;;;;;;5049018;28;20797;-81
2023/07/29 13:07:44;;;;;;;2.15;0.75;;;;;;;;;;5045683;28;20047;-81
2023/07/29 13:10:11;;;;;;;1.30;0.93;;;;;;;;;;5049582;28;20029;-78
2023/07/29 13:12:37;;;;;;;1.33;1.20;;;;;;;;;;5067618;28;20638;-79
2023/07/29 13:15:03;;;;;;;1.10;1.00;;;;;;;;;;5047027;28;20805;-81
2023/07/29 13:17:29;;;;;;;1.58;0.68;;;;;;;;;;5050360;28;20043;-81
2023/07/29 13:19:55;;;;;;;1.83;1.10;;;;;;;;;;5049130;28;20033;-81
2023/07/29 13:22:24;;;;;;;1.90;1.15;;;;;;;;;;5048838;28;20028;-80
2023/07/29 13:24:52;;;;;;;2.03;1.17;;;;;;;;;;5050609;28;20036;-79
2023/07/29 13:27:22;;;;;;;3.65;1.70;;;;;;;;;;5050397;28;20095;-82
2023/07/29 13:29:48;;;;;;;1.95;1.40;;;;;;;;;;5053595;28;20031;-82
2023/07/29 13:32:14;;;;;;;3.53;1.38;;;;;;;;;;5048759;28;20032;-79
2023/07/29 13:34:42;;;;;;;2.42;0.98;;;;;;;;;;5048773;28;20082;-80
2023/07/29 13:37:08;;;;;;;2.00;1.27;;;;;;;;;;5048198;28;20040;-80
2023/07/29 13:39:34;;;;;;;2.67;1.67;;;;;;;;;;5047661;28;20037;-82
2023/07/29 13:42:00;;;;;;;2.55;1.50;;;;;;;;;;5049305;28;20562;-79
2023/07/29 13:44:26;;;;;;;4.82;1.48;;;;;;;;;;5065925;28;20040;-79
2023/07/29 13:46:55;;;;;;;10.43;2.22;;;;;;;;;;5049160;28;20028;-80
2023/07/29 13:49:21;;;;;;;7.82;3.10;;;;;;;;;;5048722;28;20061;-78
2023/07/29 13:51:47;;;;;;;23.42;2.72;;;;;;;;;;5049273;28;20108;-81
2023/07/29 13:54:12;;;;;;;7.10;2.70;;;;;;;;;;5049997;28;20044;-77
2023/07/29 13:56:38;;;;;;;7.30;3.20;;;;;;;;;;5048437;28;20109;-78
2023/07/29 13:59:04;;;;;;;6.10;2.67;;;;;;;;;;5049534;28;20043;-82
2023/07/29 14:01:30;;;;;;;4.43;2.42;;;;;;;;;;5049164;28;20503;-79
2023/07/29 14:03:56;;;;;;;8.95;3.50;;;;;;;;;;5048901;28;20029;-82
2023/07/29 14:06:25;;;;;;;7.63;3.80;;;;;;;;;;5048390;28;20075;-80
2023/07/29 14:08:51;;;;;;;13.27;3.97;;;;;;;;;;5049864;28;20036;-82
2023/07/29 14:11:19;;;;;;;6.53;3.10;;;;;;;;;;5048280;28;20028;-80
2023/07/29 14:13:45;;;;;;;7.70;3.78;;;;;;;;;;5043411;28;20032;-82
2023/07/29 14:16:11;;;;;;;4.43;3.28;;;;;;;;;;5049601;28;20028;-77
2023/07/29 14:18:37;;;;;;;8.77;5.68;;;;;;;;;;5047688;28;20120;-79
2023/07/29 14:21:03;;;;;;;3.13;2.60;;;;;;;;;;5049383;28;20025;-81
2023/07/29 14:23:32;;;;;;;3.50;2.92;;;;;;;;;;5042778;28;20028;-78
2023/07/29 14:26:00;;;;;;;4.57;2.70;;;;;;;;;;5048957;28;20028;-79
2023/07/29 14:28:26;;;;;;;3.50;2.67;;;;;;;;;;5064777;28;20032;-80
2023/07/29 14:30:52;;;;;;;5.20;2.13;;;;;;;;;;5046870;28;20419;-77
2023/07/29 14:33:18;;;;;;;5.20;3.47;;;;;;;;;;5047894;28;20043;-82
2023/07/29 14:35:47;;;;;;;7.82;3.10;;;;;;;;;;5059484;28;20055;-79
2023/07/29 14:38:13;;;;;;;2.40;1.88;;;;;;;;;;5042937;28;20057;-81
2023/07/29 14:40:39;;;;;;;2.47;1.60;;;;;;;;;;5047460;28;20516;-79
2023/07/29 14:43:04;;;;;;;4.85;1.60;;;;;;;;;;5044785;28;20044;-81